Schofer, Pennsylvania
Current Conditions -  °F | °C
As of 7:54 AM on Wednesday 26 Nov 2014 (Local Time) from KRDG Reporting Station
Light Rain Light Rain  
Wind Chill: -1°   Ceiling: 2500
Heat Index:   Visibility: 9mi
Dew Point:   Wind: 13mph
Humidity: 83%   Direction: 30°NNE
Pressure: 30.09"   Gusts: NA
Location:  40.5336°N, 75.7775°W
Report Text: KRDG 261254Z 03011KT 9SM -RA OVC025 03/01 A3009 RMK AO2 SLP196 P0003 T00330006
Loading
Personal Weather Stations






























Interactive Weather Map New forecast layout! Learn more

10-Day Weather Forecast

Advertisements
Track Severe Weather on mobile